Airfield :
LOGIN :

Register | Disclaimer

   EN    FR    IT 

 










Legend :    VFR   Marginal VFR   IFR   Intensive IFR   Very Intensive IFR
Visi :
Ceiling :
>= 8 km
>= 3000ft
5 to 8 km
1000 to 3000 ft
1500m to 5 km
500 to 1000 ft
800 to 1500m
200 to 500 ft
< 800m
< 200 ft
Symbols :   Thunderstorms  Fog  Heavy snow  Heavy precipitations  Wind > 20 kt
SIGMETs :     Misc.  Thunderstorms  Icing  Turbulence  Mountain Waves  Volcanic Ashes






- Airport Elevation : 659 ft
- IATA code : LGG


EBLG - Liège

CURRENT METAR :
  • 230050Z 21008KT 9999 FEW042 19/14 Q1018 NOSIG

EXPIRED METARs :
  • 230020Z 22010KT 9999 FEW042 19/14 Q1018 NOSIG
  • 222350Z 20011KT 9999 FEW042 20/14 Q1018 NOSIG
  • 222320Z 19011KT 9999 FEW042 19/14 Q1018 NOSIG
  • 222250Z 19011KT 9999 FEW042 19/14 Q1019 NOSIG
  • 222220Z 19009KT 9999 FEW042 19/14 Q1019 NOSIG
  • 222150Z 20010G20KT 160V220 CAVOK 20/14 Q1019 NOSIG
  • 222120Z 19009KT 9999 FEW043 20/14 Q1019 NOSIG
  • 222050Z 19008KT 9999 FEW043 20/14 Q1019 NOSIG

TAF TAF EBLG
Valid from the 23 at 00:00 until the 24 at 06:00 UTC


222300Z 2300/2406 21008KT 9999 SCT020
TEMPO 2305/2310 SCT008 BKN013
PROB30
TEMPO 2307/2310 26015G25KT 4500 SHRA RA SCT008 BKN010TCU
BECMG 2310/2312 27012KT
PROB30
TEMPO 2313/2318 SHRA
PROB30 2402/2406 BKN007



MET'MAP, your aeronautical weather chart ! - Copyright ORBIFLY December 2007 - Disclaimer

ORBIFLY MET'MAP TEAM :

Programming & Development : Alexandra Zaïnal
Original concept : Baudouin d'Aumeries
Technical & hardware support : Manuel Goepfert
Assistance : Marc-Olivier Méhu




SOURCES & CREDITS :

   NOAA